sensor_id;sensor_type;location;lat;lon;timestamp;temperature;humidity
45012;DHT22;63444;48.148;11.542;2023-06-04T00:00:05;18.60;80.30
45012;DHT22;63444;48.148;11.542;2023-06-04T00:02:32;18.70;80.50
45012;DHT22;63444;48.148;11.542;2023-06-04T00:04:58;18.60;80.20
45012;DHT22;63444;48.148;11.542;2023-06-04T00:07:23;18.60;80.10
45012;DHT22;63444;48.148;11.542;2023-06-04T00:09:49;18.60;79.80
45012;DHT22;63444;48.148;11.542;2023-06-04T00:12:15;18.60;79.60
45012;DHT22;63444;48.148;11.542;2023-06-04T00:14:41;18.60;79.40
45012;DHT22;63444;48.148;11.542;2023-06-04T00:17:08;18.50;79.30
45012;DHT22;63444;48.148;11.542;2023-06-04T00:19:35;18.50;79.40
45012;DHT22;63444;48.148;11.542;2023-06-04T00:22:01;18.40;79.40
45012;DHT22;63444;48.148;11.542;2023-06-04T00:24:26;18.40;79.40
45012;DHT22;63444;48.148;11.542;2023-06-04T00:26:52;18.20;79.20
45012;DHT22;63444;48.148;11.542;2023-06-04T00:29:17;18.40;79.20
45012;DHT22;63444;48.148;11.542;2023-06-04T00:31:43;18.30;78.90
45012;DHT22;63444;48.148;11.542;2023-06-04T00:34:10;18.30;79.00
45012;DHT22;63444;48.148;11.542;2023-06-04T00:36:36;18.20;79.00
45012;DHT22;63444;48.148;11.542;2023-06-04T00:39:02;18.30;79.00
45012;DHT22;63444;48.148;11.542;2023-06-04T00:41:27;18.10;78.90
45012;DHT22;63444;48.148;11.542;2023-06-04T00:43:53;18.10;78.90
45012;DHT22;63444;48.148;11.542;2023-06-04T00:46:25;18.00;78.60
45012;DHT22;63444;48.148;11.542;2023-06-04T00:48:52;18.00;78.50
45012;DHT22;63444;48.148;11.542;2023-06-04T00:51:18;18.00;77.90
45012;DHT22;63444;48.148;11.542;2023-06-04T00:53:44;18.10;77.60
45012;DHT22;63444;48.148;11.542;2023-06-04T00:56:10;18.00;77.60
45012;DHT22;63444;48.148;11.542;2023-06-04T00:58:39;17.90;77.40
45012;DHT22;63444;48.148;11.542;2023-06-04T01:01:15;18.00;77.30
45012;DHT22;63444;48.148;11.542;2023-06-04T01:03:43;17.80;76.80
45012;DHT22;63444;48.148;11.542;2023-06-04T01:08:49;17.70;77.00
45012;DHT22;63444;48.148;11.542;2023-06-04T01:11:18;17.70;77.10
45012;DHT22;63444;48.148;11.542;2023-06-04T01:13:43;17.70;77.20
45012;DHT22;63444;48.148;11.542;2023-06-04T01:16:10;17.70;77.20
45012;DHT22;63444;48.148;11.542;2023-06-04T01:18:38;17.80;77.30
45012;DHT22;63444;48.148;11.542;2023-06-04T01:21:08;17.60;77.20
45012;DHT22;63444;48.148;11.542;2023-06-04T01:23:45;17.60;77.30
45012;DHT22;63444;48.148;11.542;2023-06-04T01:26:11;17.50;77.20
45012;DHT22;63444;48.148;11.542;2023-06-04T01:28:37;17.50;77.20
45012;DHT22;63444;48.148;11.542;2023-06-04T01:31:04;17.50;77.30
45012;DHT22;63444;48.148;11.542;2023-06-04T01:33:33;17.50;77.30
45012;DHT22;63444;48.148;11.542;2023-06-04T01:35:59;17.50;77.30
45012;DHT22;63444;48.148;11.542;2023-06-04T01:38:25;17.40;77.30
45012;DHT22;63444;48.148;11.542;2023-06-04T01:40:51;17.40;77.40
45012;DHT22;63444;48.148;11.542;2023-06-04T01:43:18;17.30;77.10
45012;DHT22;63444;48.148;11.542;2023-06-04T01:45:44;17.30;77.50
45012;DHT22;63444;48.148;11.542;2023-06-04T01:48:09;17.20;77.50
45012;DHT22;63444;48.148;11.542;2023-06-04T01:50:35;17.20;77.80
45012;DHT22;63444;48.148;11.542;2023-06-04T01:53:01;17.20;77.90
45012;DHT22;63444;48.148;11.542;2023-06-04T01:55:26;17.20;78.00
45012;DHT22;63444;48.148;11.542;2023-06-04T01:57:54;17.20;78.10
45012;DHT22;63444;48.148;11.542;2023-06-04T02:00:20;17.10;78.10
45012;DHT22;63444;48.148;11.542;2023-06-04T02:02:46;17.10;78.30
45012;DHT22;63444;48.148;11.542;2023-06-04T02:05:13;17.20;78.40
45012;DHT22;63444;48.148;11.542;2023-06-04T02:07:41;17.10;78.30
45012;DHT22;63444;48.148;11.542;2023-06-04T02:12:35;17.00;78.20
45012;DHT22;63444;48.148;11.542;2023-06-04T02:15:01;16.90;78.10
45012;DHT22;63444;48.148;11.542;2023-06-04T02:17:26;16.90;78.30
45012;DHT22;63444;48.148;11.542;2023-06-04T02:19:52;16.90;78.30
45012;DHT22;63444;48.148;11.542;2023-06-04T02:22:18;16.80;78.20
45012;DHT22;63444;48.148;11.542;2023-06-04T02:24:45;16.80;78.30
45012;DHT22;63444;48.148;11.542;2023-06-04T02:27:11;16.80;78.30
45012;DHT22;63444;48.148;11.542;2023-06-04T02:29:39;16.80;78.50
45012;DHT22;63444;48.148;11.542;2023-06-04T02:32:05;16.80;78.80
45012;DHT22;63444;48.148;11.542;2023-06-04T02:34:30;16.70;78.80
45012;DHT22;63444;48.148;11.542;2023-06-04T02:36:57;16.80;79.00
45012;DHT22;63444;48.148;11.542;2023-06-04T02:39:24;16.70;79.10
45012;DHT22;63444;48.148;11.542;2023-06-04T02:41:49;16.70;79.10
45012;DHT22;63444;48.148;11.542;2023-06-04T02:44:15;16.70;79.10
45012;DHT22;63444;48.148;11.542;2023-06-04T02:46:40;16.70;79.10
45012;DHT22;63444;48.148;11.542;2023-06-04T02:49:06;16.60;79.00
45012;DHT22;63444;48.148;11.542;2023-06-04T02:51:32;16.50;78.90
45012;DHT22;63444;48.148;11.542;2023-06-04T02:53:58;16.50;79.10
45012;DHT22;63444;48.148;11.542;2023-06-04T02:56:24;16.50;79.10
45012;DHT22;63444;48.148;11.542;2023-06-04T02:58:54;16.50;79.30
45012;DHT22;63444;48.148;11.542;2023-06-04T03:01:24;16.40;79.40
45012;DHT22;63444;48.148;11.542;2023-06-04T03:03:52;16.40;79.40
45012;DHT22;63444;48.148;11.542;2023-06-04T03:06:18;16.50;79.30
45012;DHT22;63444;48.148;11.542;2023-06-04T03:08:49;16.40;79.10
45012;DHT22;63444;48.148;11.542;2023-06-04T03:11:16;16.50;79.10
45012;DHT22;63444;48.148;11.542;2023-06-04T03:13:41;16.30;78.90
45012;DHT22;63444;48.148;11.542;2023-06-04T03:16:07;16.30;78.90
45012;DHT22;63444;48.148;11.542;2023-06-04T03:18:44;16.20;78.90
45012;DHT22;63444;48.148;11.542;2023-06-04T03:21:10;16.30;79.20
45012;DHT22;63444;48.148;11.542;2023-06-04T03:23:39;16.30;79.20
45012;DHT22;63444;48.148;11.542;2023-06-04T03:26:05;16.20;79.10
45012;DHT22;63444;48.148;11.542;2023-06-04T03:28:32;16.20;79.10
45012;DHT22;63444;48.148;11.542;2023-06-04T03:30:58;16.20;79.30
45012;DHT22;63444;48.148;11.542;2023-06-04T03:33:24;16.30;79.80
45012;DHT22;63444;48.148;11.542;2023-06-04T03:35:53;16.10;80.30
45012;DHT22;63444;48.148;11.542;2023-06-04T03:38:19;16.10;80.80
45012;DHT22;63444;48.148;11.542;2023-06-04T03:40:45;16.00;81.20
45012;DHT22;63444;48.148;11.542;2023-06-04T03:43:11;16.10;81.60
45012;DHT22;63444;48.148;11.542;2023-06-04T03:45:37;16.00;82.10
45012;DHT22;63444;48.148;11.542;2023-06-04T03:48:03;16.00;82.40
45012;DHT22;63444;48.148;11.542;2023-06-04T03:50:28;16.00;82.80
45012;DHT22;63444;48.148;11.542;2023-06-04T03:52:55;16.00;83.10
45012;DHT22;63444;48.148;11.542;2023-06-04T03:55:20;16.10;83.30
45012;DHT22;63444;48.148;11.542;2023-06-04T03:57:46;16.00;83.40
45012;DHT22;63444;48.148;11.542;2023-06-04T04:00:12;16.00;83.60
45012;DHT22;63444;48.148;11.542;2023-06-04T04:02:40;16.00;83.90
45012;DHT22;63444;48.148;11.542;2023-06-04T04:05:06;16.00;84.20
45012;DHT22;63444;48.148;11.542;2023-06-04T04:07:32;16.00;84.40
45012;DHT22;63444;48.148;11.542;2023-06-04T04:09:58;15.90;84.60
45012;DHT22;63444;48.148;11.542;2023-06-04T04:12:24;15.90;85.30
45012;DHT22;63444;48.148;11.542;2023-06-04T04:14:49;16.10;84.90
45012;DHT22;63444;48.148;11.542;2023-06-04T04:17:15;16.00;84.90
45012;DHT22;63444;48.148;11.542;2023-06-04T04:19:41;15.90;85.00
45012;DHT22;63444;48.148;11.542;2023-06-04T04:22:07;15.90;85.20
45012;DHT22;63444;48.148;11.542;2023-06-04T04:24:34;15.90;85.00
45012;DHT22;63444;48.148;11.542;2023-06-04T04:27:02;15.90;84.80
45012;DHT22;63444;48.148;11.542;2023-06-04T04:29:30;15.80;84.20
45012;DHT22;63444;48.148;11.542;2023-06-04T04:31:58;15.90;84.20
45012;DHT22;63444;48.148;11.542;2023-06-04T04:34:34;15.90;83.80
45012;DHT22;63444;48.148;11.542;2023-06-04T04:37:03;15.90;83.50
45012;DHT22;63444;48.148;11.542;2023-06-04T04:39:28;15.90;83.20
45012;DHT22;63444;48.148;11.542;2023-06-04T04:41:54;15.80;83.00
45012;DHT22;63444;48.148;11.542;2023-06-04T04:44:21;15.80;82.70
45012;DHT22;63444;48.148;11.542;2023-06-04T04:46:48;15.80;82.60
45012;DHT22;63444;48.148;11.542;2023-06-04T04:49:14;15.90;82.80
45012;DHT22;63444;48.148;11.542;2023-06-04T04:51:39;15.90;83.00
45012;DHT22;63444;48.148;11.542;2023-06-04T04:54:05;15.90;83.00
45012;DHT22;63444;48.148;11.542;2023-06-04T04:56:33;15.90;82.90
45012;DHT22;63444;48.148;11.542;2023-06-04T04:59:00;15.90;82.90
45012;DHT22;63444;48.148;11.542;2023-06-04T05:01:25;16.00;82.90
45012;DHT22;63444;48.148;11.542;2023-06-04T05:03:52;15.90;82.60
45012;DHT22;63444;48.148;11.542;2023-06-04T05:06:17;15.90;82.40
45012;DHT22;63444;48.148;11.542;2023-06-04T05:08:43;15.90;82.00
45012;DHT22;63444;48.148;11.542;2023-06-04T05:11:09;15.90;81.90
45012;DHT22;63444;48.148;11.542;2023-06-04T05:13:35;15.80;81.90
45012;DHT22;63444;48.148;11.542;2023-06-04T05:16:02;15.90;82.10
45012;DHT22;63444;48.148;11.542;2023-06-04T05:18:32;15.80;82.20
45012;DHT22;63444;48.148;11.542;2023-06-04T05:20:58;15.80;82.60
45012;DHT22;63444;48.148;11.542;2023-06-04T05:23:26;16.00;82.30
45012;DHT22;63444;48.148;11.542;2023-06-04T05:25:52;15.90;82.20
45012;DHT22;63444;48.148;11.542;2023-06-04T05:28:18;16.00;82.50
45012;DHT22;63444;48.148;11.542;2023-06-04T05:30:44;16.00;82.50
45012;DHT22;63444;48.148;11.542;2023-06-04T05:33:10;16.00;82.40
45012;DHT22;63444;48.148;11.542;2023-06-04T05:35:44;16.00;82.30
45012;DHT22;63444;48.148;11.542;2023-06-04T05:38:09;16.00;82.20
45012;DHT22;63444;48.148;11.542;2023-06-04T05:40:35;16.10;82.10
45012;DHT22;63444;48.148;11.542;2023-06-04T05:43:01;16.10;82.10
45012;DHT22;63444;48.148;11.542;2023-06-04T05:45:27;16.10;82.00
45012;DHT22;63444;48.148;11.542;2023-06-04T05:47:53;16.00;81.60
45012;DHT22;63444;48.148;11.542;2023-06-04T05:50:19;16.20;81.50
45012;DHT22;63444;48.148;11.542;2023-06-04T05:52:45;16.30;81.50
45012;DHT22;63444;48.148;11.542;2023-06-04T05:55:11;16.30;81.00
45012;DHT22;63444;48.148;11.542;2023-06-04T05:57:36;16.40;81.00
45012;DHT22;63444;48.148;11.542;2023-06-04T06:00:02;16.50;81.00
45012;DHT22;63444;48.148;11.542;2023-06-04T06:02:33;16.60;80.80
45012;DHT22;63444;48.148;11.542;2023-06-04T06:05:00;16.70;80.80
45012;DHT22;63444;48.148;11.542;2023-06-04T06:07:25;16.90;80.70
45012;DHT22;63444;48.148;11.542;2023-06-04T06:09:51;17.10;80.50
45012;DHT22;63444;48.148;11.542;2023-06-04T06:12:17;17.40;79.60
45012;DHT22;63444;48.148;11.542;2023-06-04T06:14:43;17.30;79.30
45012;DHT22;63444;48.148;11.542;2023-06-04T06:17:09;17.40;79.10
45012;DHT22;63444;48.148;11.542;2023-06-04T06:19:36;17.40;78.60
45012;DHT22;63444;48.148;11.542;2023-06-04T06:22:02;17.50;78.70
45012;DHT22;63444;48.148;11.542;2023-06-04T06:24:29;17.60;78.80
45012;DHT22;63444;48.148;11.542;2023-06-04T06:26:55;17.70;78.80
45012;DHT22;63444;48.148;11.542;2023-06-04T06:29:21;17.80;78.80
45012;DHT22;63444;48.148;11.542;2023-06-04T06:31:47;18.00;78.80
45012;DHT22;63444;48.148;11.542;2023-06-04T06:34:13;18.10;78.40
45012;DHT22;63444;48.148;11.542;2023-06-04T06:36:38;18.30;78.40
45012;DHT22;63444;48.148;11.542;2023-06-04T06:39:04;18.60;78.40
45012;DHT22;63444;48.148;11.542;2023-06-04T06:41:30;18.60;78.00
45012;DHT22;63444;48.148;11.542;2023-06-04T06:44:00;18.80;78.00
45012;DHT22;63444;48.148;11.542;2023-06-04T06:46:26;18.90;77.70
45012;DHT22;63444;48.148;11.542;2023-06-04T06:48:52;19.00;76.80
45012;DHT22;63444;48.148;11.542;2023-06-04T06:51:17;19.30;77.10
45012;DHT22;63444;48.148;11.542;2023-06-04T06:53:43;19.40;77.00
45012;DHT22;63444;48.148;11.542;2023-06-04T06:56:09;19.60;76.80
45012;DHT22;63444;48.148;11.542;2023-06-04T06:58:34;19.70;76.50
45012;DHT22;63444;48.148;11.542;2023-06-04T07:01:00;19.80;75.20
45012;DHT22;63444;48.148;11.542;2023-06-04T07:03:26;19.80;75.60
45012;DHT22;63444;48.148;11.542;2023-06-04T07:05:52;20.10;75.50
45012;DHT22;63444;48.148;11.542;2023-06-04T07:08:17;20.20;75.10
45012;DHT22;63444;48.148;11.542;2023-06-04T07:10:43;20.50;74.80
45012;DHT22;63444;48.148;11.542;2023-06-04T07:13:09;20.70;74.70
45012;DHT22;63444;48.148;11.542;2023-06-04T07:15:35;20.90;74.10
45012;DHT22;63444;48.148;11.542;2023-06-04T07:18:01;21.00;74.20
45012;DHT22;63444;48.148;11.542;2023-06-04T07:20:26;21.10;73.80
45012;DHT22;63444;48.148;11.542;2023-06-04T07:22:52;21.30;73.90
45012;DHT22;63444;48.148;11.542;2023-06-04T07:25:22;21.40;72.80
45012;DHT22;63444;48.148;11.542;2023-06-04T07:27:50;21.30;72.40
45012;DHT22;63444;48.148;11.542;2023-06-04T07:30:16;21.60;72.90
45012;DHT22;63444;48.148;11.542;2023-06-04T07:32:47;21.60;73.00
45012;DHT22;63444;48.148;11.542;2023-06-04T07:35:13;21.70;72.90
45012;DHT22;63444;48.148;11.542;2023-06-04T07:37:42;21.90;72.80
45012;DHT22;63444;48.148;11.542;2023-06-04T07:40:11;22.10;72.40
45012;DHT22;63444;48.148;11.542;2023-06-04T07:42:37;22.20;72.20
45012;DHT22;63444;48.148;11.542;2023-06-04T07:45:04;22.20;72.10
45012;DHT22;63444;48.148;11.542;2023-06-04T07:47:33;22.40;71.90
45012;DHT22;63444;48.148;11.542;2023-06-04T07:49:59;22.60;71.30
45012;DHT22;63444;48.148;11.542;2023-06-04T07:52:29;22.50;71.50
45012;DHT22;63444;48.148;11.542;2023-06-04T08:35:47;24.20;67.40
45012;DHT22;63444;48.148;11.542;2023-06-04T08:38:12;24.20;67.70
45012;DHT22;63444;48.148;11.542;2023-06-04T08:40:38;24.20;67.30
45012;DHT22;63444;48.148;11.542;2023-06-04T08:43:04;24.20;67.50
45012;DHT22;63444;48.148;11.542;2023-06-04T08:45:33;24.30;67.50
45012;DHT22;63444;48.148;11.542;2023-06-04T08:48:02;24.40;67.40
45012;DHT22;63444;48.148;11.542;2023-06-04T08:50:32;24.60;67.30
45012;DHT22;63444;48.148;11.542;2023-06-04T08:52:58;24.70;66.70
45012;DHT22;63444;48.148;11.542;2023-06-04T08:55:26;24.70;66.70
45012;DHT22;63444;48.148;11.542;2023-06-04T08:57:52;24.70;66.90
45012;DHT22;63444;48.148;11.542;2023-06-04T09:00:19;24.80;66.00
45012;DHT22;63444;48.148;11.542;2023-06-04T09:02:46;24.90;66.30
45012;DHT22;63444;48.148;11.542;2023-06-04T09:05:22;25.10;66.10
45012;DHT22;63444;48.148;11.542;2023-06-04T09:07:52;25.20;66.20
45012;DHT22;63444;48.148;11.542;2023-06-04T09:10:22;25.30;66.00
45012;DHT22;63444;48.148;11.542;2023-06-04T09:12:51;25.50;65.60
45012;DHT22;63444;48.148;11.542;2023-06-04T09:15:18;25.60;64.70
45012;DHT22;63444;48.148;11.542;2023-06-04T09:17:44;25.70;65.00
45012;DHT22;63444;48.148;11.542;2023-06-04T09:20:24;25.80;64.90
45012;DHT22;63444;48.148;11.542;2023-06-04T09:22:50;25.90;64.50
45012;DHT22;63444;48.148;11.542;2023-06-04T09:25:34;26.00;64.50
45012;DHT22;63444;48.148;11.542;2023-06-04T09:28:07;26.20;64.60
45012;DHT22;63444;48.148;11.542;2023-06-04T09:30:33;26.50;63.50
45012;DHT22;63444;48.148;11.542;2023-06-04T09:33:08;26.70;63.00
45012;DHT22;63444;48.148;11.542;2023-06-04T09:35:35;26.90;62.30
45012;DHT22;63444;48.148;11.542;2023-06-04T09:38:04;27.10;61.80
45012;DHT22;63444;48.148;11.542;2023-06-04T09:40:37;27.30;61.10
45012;DHT22;63444;48.148;11.542;2023-06-04T09:43:03;27.30;60.90
45012;DHT22;63444;48.148;11.542;2023-06-04T09:45:33;27.40;60.90
45012;DHT22;63444;48.148;11.542;2023-06-04T09:48:01;27.70;61.10
45012;DHT22;63444;48.148;11.542;2023-06-04T10:13:53;28.20;56.90
45012;DHT22;63444;48.148;11.542;2023-06-04T10:16:19;27.90;56.70
45012;DHT22;63444;48.148;11.542;2023-06-04T10:18:46;27.70;57.10
45012;DHT22;63444;48.148;11.542;2023-06-04T10:21:13;27.60;57.30
45012;DHT22;63444;48.148;11.542;2023-06-04T10:23:40;27.60;56.30
45012;DHT22;63444;48.148;11.542;2023-06-04T10:26:07;27.70;55.80
45012;DHT22;63444;48.148;11.542;2023-06-04T10:28:34;27.60;56.10
45012;DHT22;63444;48.148;11.542;2023-06-04T10:31:00;27.70;56.40
45012;DHT22;63444;48.148;11.542;2023-06-04T10:33:26;27.60;57.20
45012;DHT22;63444;48.148;11.542;2023-06-04T10:35:54;27.70;56.90
45012;DHT22;63444;48.148;11.542;2023-06-04T10:38:23;27.60;56.40
45012;DHT22;63444;48.148;11.542;2023-06-04T10:40:49;27.80;56.40
45012;DHT22;63444;48.148;11.542;2023-06-04T10:43:15;27.80;56.80
45012;DHT22;63444;48.148;11.542;2023-06-04T10:45:44;27.70;55.80
45012;DHT22;63444;48.148;11.542;2023-06-04T10:48:13;27.90;55.90
45012;DHT22;63444;48.148;11.542;2023-06-04T10:50:52;27.80;56.70
45012;DHT22;63444;48.148;11.542;2023-06-04T10:53:19;27.90;56.10
45012;DHT22;63444;48.148;11.542;2023-06-04T10:55:48;28.00;55.80
45012;DHT22;63444;48.148;11.542;2023-06-04T10:58:15;27.90;56.20
45012;DHT22;63444;48.148;11.542;2023-06-04T11:00:43;27.70;55.70
45012;DHT22;63444;48.148;11.542;2023-06-04T11:03:12;27.60;56.00
45012;DHT22;63444;48.148;11.542;2023-06-04T11:05:40;27.50;55.90
45012;DHT22;63444;48.148;11.542;2023-06-04T11:08:07;27.60;56.00
45012;DHT22;63444;48.148;11.542;2023-06-04T11:10:38;27.70;56.10
45012;DHT22;63444;48.148;11.542;2023-06-04T11:13:05;27.80;55.70
45012;DHT22;63444;48.148;11.542;2023-06-04T11:33:44;28.10;55.20
45012;DHT22;63444;48.148;11.542;2023-06-04T11:39:01;28.00;55.00
45012;DHT22;63444;48.148;11.542;2023-06-04T11:41:34;28.00;55.30
45012;DHT22;63444;48.148;11.542;2023-06-04T11:44:06;27.90;55.10
45012;DHT22;63444;48.148;11.542;2023-06-04T11:46:35;27.90;55.10
45012;DHT22;63444;48.148;11.542;2023-06-04T11:49:04;27.90;55.10
45012;DHT22;63444;48.148;11.542;2023-06-04T11:51:31;27.90;55.10
45012;DHT22;63444;48.148;11.542;2023-06-04T11:53:57;27.80;54.90
45012;DHT22;63444;48.148;11.542;2023-06-04T11:56:24;27.80;55.20
45012;DHT22;63444;48.148;11.542;2023-06-04T11:58:53;27.90;54.90
45012;DHT22;63444;48.148;11.542;2023-06-04T12:01:19;28.00;54.20
45012;DHT22;63444;48.148;11.542;2023-06-04T12:03:45;27.90;54.60
45012;DHT22;63444;48.148;11.542;2023-06-04T12:06:12;27.80;54.50
45012;DHT22;63444;48.148;11.542;2023-06-04T12:08:52;27.80;54.70
45012;DHT22;63444;48.148;11.542;2023-06-04T12:11:33;27.80;54.60
45012;DHT22;63444;48.148;11.542;2023-06-04T12:14:16;27.90;54.30
45012;DHT22;63444;48.148;11.542;2023-06-04T12:16:44;28.00;54.10
45012;DHT22;63444;48.148;11.542;2023-06-04T12:19:19;28.00;54.10
45012;DHT22;63444;48.148;11.542;2023-06-04T12:21:45;27.90;54.20
45012;DHT22;63444;48.148;11.542;2023-06-04T12:44:51;27.60;53.80
45012;DHT22;63444;48.148;11.542;2023-06-04T12:47:16;27.50;53.50
45012;DHT22;63444;48.148;11.542;2023-06-04T12:49:43;27.50;53.20
45012;DHT22;63444;48.148;11.542;2023-06-04T12:52:09;27.50;53.70
45012;DHT22;63444;48.148;11.542;2023-06-04T12:54:35;27.40;53.20
45012;DHT22;63444;48.148;11.542;2023-06-04T12:57:00;27.30;53.10
45012;DHT22;63444;48.148;11.542;2023-06-04T12:59:27;27.20;53.20
45012;DHT22;63444;48.148;11.542;2023-06-04T13:01:54;27.10;53.40
45012;DHT22;63444;48.148;11.542;2023-06-04T13:04:20;27.10;52.80
45012;DHT22;63444;48.148;11.542;2023-06-04T13:06:46;27.00;52.50
45012;DHT22;63444;48.148;11.542;2023-06-04T13:09:12;27.00;53.10
45012;DHT22;63444;48.148;11.542;2023-06-04T13:11:40;27.00;52.50
45012;DHT22;63444;48.148;11.542;2023-06-04T13:14:08;27.10;52.20
45012;DHT22;63444;48.148;11.542;2023-06-04T13:16:34;27.10;52.30
45012;DHT22;63444;48.148;11.542;2023-06-04T13:19:01;27.20;52.80
45012;DHT22;63444;48.148;11.542;2023-06-04T13:21:27;27.20;52.90
45012;DHT22;63444;48.148;11.542;2023-06-04T13:23:52;27.20;53.20
45012;DHT22;63444;48.148;11.542;2023-06-04T13:26:19;27.20;53.50
45012;DHT22;63444;48.148;11.542;2023-06-04T13:28:45;27.20;53.80
45012;DHT22;63444;48.148;11.542;2023-06-04T13:31:10;27.20;53.80
45012;DHT22;63444;48.148;11.542;2023-06-04T13:33:36;27.20;53.10
45012;DHT22;63444;48.148;11.542;2023-06-04T13:36:03;27.20;53.20
45012;DHT22;63444;48.148;11.542;2023-06-04T13:38:29;27.20;52.90
45012;DHT22;63444;48.148;11.542;2023-06-04T13:40:54;27.20;53.10
45012;DHT22;63444;48.148;11.542;2023-06-04T13:43:21;27.20;52.90
45012;DHT22;63444;48.148;11.542;2023-06-04T13:45:47;27.20;52.50
45012;DHT22;63444;48.148;11.542;2023-06-04T13:48:13;27.20;52.40
45012;DHT22;63444;48.148;11.542;2023-06-04T13:50:39;27.20;52.10
45012;DHT22;63444;48.148;11.542;2023-06-04T13:53:05;27.30;51.80
45012;DHT22;63444;48.148;11.542;2023-06-04T13:55:30;27.20;51.80
45012;DHT22;63444;48.148;11.542;2023-06-04T13:57:56;27.20;51.70
45012;DHT22;63444;48.148;11.542;2023-06-04T14:00:22;27.30;51.60
45012;DHT22;63444;48.148;11.542;2023-06-04T14:02:48;27.30;51.60
45012;DHT22;63444;48.148;11.542;2023-06-04T14:05:14;27.20;52.30
45012;DHT22;63444;48.148;11.542;2023-06-04T14:07:42;27.20;52.60
45012;DHT22;63444;48.148;11.542;2023-06-04T14:10:09;26.90;51.90
45012;DHT22;63444;48.148;11.542;2023-06-04T14:12:36;26.90;51.40
45012;DHT22;63444;48.148;11.542;2023-06-04T14:15:02;26.90;52.00
45012;DHT22;63444;48.148;11.542;2023-06-04T14:17:28;26.90;52.30
45012;DHT22;63444;48.148;11.542;2023-06-04T14:19:54;26.90;52.30
45012;DHT22;63444;48.148;11.542;2023-06-04T14:22:20;26.80;52.00
45012;DHT22;63444;48.148;11.542;2023-06-04T16:26:51;25.60;55.10
45012;DHT22;63444;48.148;11.542;2023-06-04T16:29:17;25.60;55.20
45012;DHT22;63444;48.148;11.542;2023-06-04T16:31:43;25.50;55.00
45012;DHT22;63444;48.148;11.542;2023-06-04T16:34:09;25.50;55.20
45012;DHT22;63444;48.148;11.542;2023-06-04T16:36:35;25.50;55.40
45012;DHT22;63444;48.148;11.542;2023-06-04T16:39:21;25.40;55.10
45012;DHT22;63444;48.148;11.542;2023-06-04T16:41:47;25.30;55.30
45012;DHT22;63444;48.148;11.542;2023-06-04T16:44:12;25.30;55.40
45012;DHT22;63444;48.148;11.542;2023-06-04T17:51:16;24.50;55.80
45012;DHT22;63444;48.148;11.542;2023-06-04T17:53:43;24.50;55.90
45012;DHT22;63444;48.148;11.542;2023-06-04T17:56:08;24.50;56.00
45012;DHT22;63444;48.148;11.542;2023-06-04T17:58:34;24.30;55.80
45012;DHT22;63444;48.148;11.542;2023-06-04T18:01:00;24.20;55.80
45012;DHT22;63444;48.148;11.542;2023-06-04T18:03:27;24.20;56.00
45012;DHT22;63444;48.148;11.542;2023-06-04T18:05:53;24.20;56.10
45012;DHT22;63444;48.148;11.542;2023-06-04T18:08:18;24.10;56.30
45012;DHT22;63444;48.148;11.542;2023-06-04T18:10:44;24.10;56.30
45012;DHT22;63444;48.148;11.542;2023-06-04T18:13:11;24.10;56.40
45012;DHT22;63444;48.148;11.542;2023-06-04T18:15:36;24.10;56.30
45012;DHT22;63444;48.148;11.542;2023-06-04T18:18:02;24.10;56.40
45012;DHT22;63444;48.148;11.542;2023-06-04T18:20:28;24.10;56.50
45012;DHT22;63444;48.148;11.542;2023-06-04T18:22:53;24.00;56.40
45012;DHT22;63444;48.148;11.542;2023-06-04T18:25:21;24.00;56.50
45012;DHT22;63444;48.148;11.542;2023-06-04T18:27:46;24.00;56.70
45012;DHT22;63444;48.148;11.542;2023-06-04T18:30:13;24.00;56.90
45012;DHT22;63444;48.148;11.542;2023-06-04T18:32:44;23.90;57.10
45012;DHT22;63444;48.148;11.542;2023-06-04T18:35:09;23.90;57.50
45012;DHT22;63444;48.148;11.542;2023-06-04T18:37:35;23.80;57.70
45012;DHT22;63444;48.148;11.542;2023-06-04T18:40:04;23.80;58.10
45012;DHT22;63444;48.148;11.542;2023-06-04T18:42:30;23.80;58.20
45012;DHT22;63444;48.148;11.542;2023-06-04T18:57:47;23.60;59.10
45012;DHT22;63444;48.148;11.542;2023-06-04T19:00:13;23.60;59.30
45012;DHT22;63444;48.148;11.542;2023-06-04T19:02:39;23.60;59.40
45012;DHT22;63444;48.148;11.542;2023-06-04T19:05:06;23.60;59.40
45012;DHT22;63444;48.148;11.542;2023-06-04T19:07:32;23.60;59.30
45012;DHT22;63444;48.148;11.542;2023-06-04T19:09:59;23.50;59.40
45012;DHT22;63444;48.148;11.542;2023-06-04T19:12:25;23.50;59.50
45012;DHT22;63444;48.148;11.542;2023-06-04T19:14:52;23.50;59.60
45012;DHT22;63444;48.148;11.542;2023-06-04T19:17:21;23.50;59.60
45012;DHT22;63444;48.148;11.542;2023-06-04T19:19:47;23.40;59.60
45012;DHT22;63444;48.148;11.542;2023-06-04T19:22:16;23.40;59.80
45012;DHT22;63444;48.148;11.542;2023-06-04T19:32:53;23.20;60.20
45012;DHT22;63444;48.148;11.542;2023-06-04T19:35:18;23.20;60.30
45012;DHT22;63444;48.148;11.542;2023-06-04T19:37:45;23.20;60.40
45012;DHT22;63444;48.148;11.542;2023-06-04T19:40:11;23.20;60.60
45012;DHT22;63444;48.148;11.542;2023-06-04T19:42:38;23.20;60.70
45012;DHT22;63444;48.148;11.542;2023-06-04T19:45:05;23.20;60.70
45012;DHT22;63444;48.148;11.542;2023-06-04T19:47:31;23.10;60.80
45012;DHT22;63444;48.148;11.542;2023-06-04T19:49:57;23.10;60.80
45012;DHT22;63444;48.148;11.542;2023-06-04T19:52:23;23.00;60.80
45012;DHT22;63444;48.148;11.542;2023-06-04T19:54:50;23.00;60.90
45012;DHT22;63444;48.148;11.542;2023-06-04T19:57:16;22.90;60.90
45012;DHT22;63444;48.148;11.542;2023-06-04T19:59:41;23.10;61.20
45012;DHT22;63444;48.148;11.542;2023-06-04T20:33:09;22.50;61.60
45012;DHT22;63444;48.148;11.542;2023-06-04T20:35:37;22.50;61.80
45012;DHT22;63444;48.148;11.542;2023-06-04T20:38:03;22.60;62.00
45012;DHT22;63444;48.148;11.542;2023-06-04T20:40:29;22.40;62.10
45012;DHT22;63444;48.148;11.542;2023-06-04T20:42:56;22.40;62.20
45012;DHT22;63444;48.148;11.542;2023-06-04T20:45:22;22.40;62.40
45012;DHT22;63444;48.148;11.542;2023-06-04T20:47:48;22.40;62.50
45012;DHT22;63444;48.148;11.542;2023-06-04T20:50:14;22.30;62.60
45012;DHT22;63444;48.148;11.542;2023-06-04T20:52:40;22.40;62.80
45012;DHT22;63444;48.148;11.542;2023-06-04T20:55:06;22.30;62.90
45012;DHT22;63444;48.148;11.542;2023-06-04T20:57:32;22.30;63.00
45012;DHT22;63444;48.148;11.542;2023-06-04T20:59:58;22.30;63.20
45012;DHT22;63444;48.148;11.542;2023-06-04T21:02:24;22.30;63.30